Terminal Aerodrome Forecast
Issued by NWS

Home | Current Version | Previous Version | Text Only | Print | Product List | Glossary On
Versions: 1 2 3 4 5 6 7 8 9 10 11 12 13 14 15 16 17 18
000
FTUS46 KSEW 301503 AAA
TAFOLM
TAF AMD
KOLM 301503Z 3015/0112 00000KT 1SM BR OVC004
      TEMPO 3015/3017 1/4SM FG VV002
     FM301700 VRB03KT 2SM BR BKN008
     FM301800 20004KT P6SM SCT010
     FM302000 23006KT P6SM SCT250
     FM010100 22004KT P6SM BKN070 BKN150=

USA.gov is the U.S. government's official web portal to all federal, state and local government web resources and services.